METAR v bližini

 

LJLJ - Ljubljana/Brnik, Slovenia
Oddaljenost od postaje: W 41km
Podatki zajeti: 20/03/2019 13:30
Rahlo oblačno
Rahlo oblačno
 Veter iz smeri E
Veter: E 24 km/h
Temperatura: 10°C
Občutek mraza zaradi vetra: 7°C
Rosišče: -4°C
Vlažnost: 37%
Tlak: 1031 hPa
Oblačnost: Rahlo oblačno
Vidljivost: 10 km
Podrobnosti o oblakih: Rahlo oblačno 1829 m
2019/03/20 12:30 LJLJ 201230Z 10013KT 9999 FEW060 10/M04 Q1031 NOSIG
LJMB - Maribor, Slovenia
Oddaljenost od postaje: NE 63km
Podatki zajeti: 20/03/2019 13:30
Jasno
Jasno
 Veter iz smeri NNE
Veter: NNE 15 km/h
Temperatura: 9°C
Občutek mraza zaradi vetra: 7°C
Rosišče: -4°C
Vlažnost: 40%
Tlak: 1032 hPa
Stanje: Jasno
Vidljivost: večja od 10 km
2019/03/20 12:30 LJMB 201230Z 02008KT 360V060 CAVOK 09/M04 Q1032
 
LJPZ - Portoroz, Slovenia
Oddaljenost od postaje: SW 130km
Podatki zajeti: 20/03/2019 13:30
Rahlo oblačno
Rahlo oblačno
 Veter iz smeri NE
Veter: NE 26 km/h
Temperatura: 13°C
Rosišče: -5°C
Vlažnost: 28%
Tlak: 1029 hPa
Oblačnost: Rahlo oblačno
Vidljivost: 10 km
Podrobnosti o oblakih: Rahlo oblačno 1524 m
2019/03/20 12:30 LJPZ 201230Z 05014KT 350V090 9999 FEW050 13/M05 Q1029
LJCE - Cerklje, Slovenia
Oddaljenost od postaje: ESE 49km
Podatki zajeti: 20/03/2019 13:30
Jasno
Jasno
 Veter iz smeri ENE
Veter: ENE 19 km/h
Temperatura: 11°C
Rosišče: -5°C
Vlažnost: 32%
Tlak: 1032 hPa
Stanje: Jasno
Vidljivost: večja od 10 km
2019/03/20 12:30 LJCE 201230Z 06010KT 030V100 CAVOK 11/M05 Q1032 RMK BLU
 
LDZA - Zagreb/Pleso, Croatia
Oddaljenost od postaje: ESE 96km
Podatki zajeti: 20/03/2019 13:30
Jasno
Jasno
 Veter iz smeri ENE
Veter: ENE 22 km/h
Temperatura: 11°C
Rosišče: -3°C
Vlažnost: 38%
Tlak: 1032 hPa
Stanje: Jasno
Vidljivost: večja od 10 km
2019/03/20 12:30 LDZA 201230Z 07012KT 020V100 CAVOK 11/M03 Q1032 NOSIG
LDRI - Rijeka/Omisalj, Croatia
Oddaljenost od postaje: SSW 109km
Podatki zajeti: 20/03/2019 13:30
Rahlo oblačno
Rahlo oblačno
 Veter iz smeri ENE
Veter: ENE 43 km/h, Sunek vetra: 65 km/h
Temperatura: 11°C
Rosišče: -6°C
Vlažnost: 30%
Tlak: 1028 hPa
Oblačnost: Rahlo oblačno
Vidljivost: 10 km
Podrobnosti o oblakih: Rahlo oblačno 1524 m
2019/03/20 12:30 LDRI 201230Z 06023G35KT 020V090 9999 FEW050 11/M06 Q1028
 
LDPL - Pula, Croatia
Oddaljenost od postaje: SSW 164km
Podatki zajeti: 20/03/2019 13:30
Jasno
Jasno
 Veter iz smeri E
Veter: E 26 km/h
Temperatura: 12°C
Rosišče: -2°C
Vlažnost: 38%
Tlak: 1028 hPa
Stanje: Jasno
Vidljivost: večja od 10 km
2019/03/20 12:30 LDPL 201230Z 08014KT 050V110 CAVOK 12/M02 Q1028 NOSIG
LOWK - Klagenfurt(Civ/M, Austria
Oddaljenost od postaje: NW 76km
Podatki zajeti: 20/03/2019 13:50
Rahlo oblačno
Rahlo oblačno
 Veter iz smeri SE
Veter: SE 11 km/h
Temperatura: 8°C
Občutek mraza zaradi vetra: 6°C
Rosišče: -5°C
Vlažnost: 40%
Tlak: 1031 hPa
Oblačnost: Rahlo oblačno
Vidljivost: 10 km
Podrobnosti o oblakih: Rahlo oblačno 1829 m
2019/03/20 12:50 LOWK 201250Z 13006KT 050V190 9999 FEW060 08/M05 Q1031 NOSIG
 
LOWG - Graz (mil/Civ), Austria
Oddaljenost od postaje: NNE 100km
Podatki zajeti: 20/03/2019 13:50
Delno oblačno
Delno oblačno
 Veter iz smeri E
Veter: E 9 km/h
Temperatura: 10°C
Občutek mraza zaradi vetra: 9°C
Rosišče: -5°C
Vlažnost: 35%
Tlak: 1032 hPa
Oblačnost: Delno oblačno
Vidljivost: 10 km
Podrobnosti o oblakih: Delno oblačno 2134 m
2019/03/20 12:50 LOWG 201250Z 08005KT 020V120 9999 SCT070 10/M05 Q1032 R17/19//95 NOSIG
LOAN - Wr.neustadt East, Austria
Oddaljenost od postaje: NNE 212km
Podatki zajeti: 20/03/2019 13:00
Pretežno oblačno
Pretežno oblačno
 Veter iz smeri N
Veter: N 15 km/h
Oblačnost: Pretežno oblačno
Podrobnosti o oblakih: Delno oblačno 1524 m
Pretežno oblačno 3048 m
2019/03/20 12:00 LOAN 201200Z 36008KT 40KM SCT050SC BKN100AC
 
LIPQ - Ronchi Legionari, Italy
Oddaljenost od postaje: SW 35km
Podatki zajeti: 20/03/2019 13:50
Jasno
Jasno
 Veter iz smeri ENE
Veter: ENE 20 km/h
Temperatura: 13°C
Rosišče: -4°C
Vlažnost: 31%
Tlak: 1030 hPa
Stanje: Jasno
Vidljivost: večja od 10 km
2019/03/20 12:50 LIPQ 201250Z 06011KT 030V100 CAVOK 13/M04 Q1030
LIVT - Trieste, Italy
Oddaljenost od postaje: WSW 109km
Podatki zajeti: 20/03/2019 12:55
Jasno
Jasno
 Veter iz smeri ENE
Veter: ENE 13 km/h, Sunek vetra: 31 km/h
Temperatura: 12°C
Rosišče: -4°C
Vlažnost: 33%
Tlak: 1030 hPa
Stanje: Jasno
Vidljivost: večja od 10 km
2019/03/20 11:55 LIVT 201155Z 06007G17KT CAVOK 12/M04 Q1030 RMK SKC QUK 2 QUL 1 NE VIS MAR 20 KM VIS MIN 9999
 
LIVO - Tarvisio, Italy
Oddaljenost od postaje: NNW 49km
Podatki zajeti: 20/03/2019 12:55
Rahlo oblačno
Rahlo oblačno
 Veter iz smeri ESE
Veter: ESE 6 km/h
Temperatura: 4°C
Rosišče: -5°C
Vlažnost: 52%
Tlak: 1030 hPa
Oblačnost: Rahlo oblačno
Vidljivost: 10 km
Podrobnosti o oblakih: Rahlo oblačno 914 m
2019/03/20 11:55 LIVO 201155Z 11003KT 9999 FEW030 04/M05 Q1030 RMK FEW VIS MIN 9999
LIPZ - Venezia/Tessera, Italy
Oddaljenost od postaje: WSW 217km
Podatki zajeti: 20/03/2019 13:50
Jasno
Jasno
 Veter iz smeri E
Veter: E 17 km/h
Temperatura: 13°C
Rosišče: 0°C
Vlažnost: 41%
Tlak: 1030 hPa
Stanje: Jasno
Vidljivost: večja od 10 km
2019/03/20 12:50 LIPZ 201250Z 09009KT 060V120 CAVOK 13/M00 Q1030 NOSIG
 
LHSM - Balaton, Hungary
Oddaljenost od postaje: ENE 177km
Podatki zajeti: 20/03/2019 13:15
Jasno
Jasno
 Veter iz smeri NNW
Veter: NNW 20 km/h
Temperatura: 11°C
Rosišče: -5°C
Vlažnost: 32%
Tlak: 1033 hPa
Stanje: Jasno
Vidljivost: večja od 10 km
2019/03/20 12:15 LHSM 201215Z 34011KT CAVOK 11/M05 Q1033 NOSIG